createdAt,value
2023-05-19T00:01:44.343Z,98.16
2023-05-19T00:04:56.887Z,95.48
2023-05-19T00:08:06.460Z,95.24
2023-05-19T00:11:00.801Z,95.23
2023-05-19T00:14:05.098Z,94.03
2023-05-19T00:18:03.600Z,93.32
2023-05-19T00:21:41.328Z,93.26
2023-05-19T00:24:51.605Z,94.16
2023-05-19T00:28:45.778Z,93.98
2023-05-19T00:35:37.925Z,85.97
2023-05-19T00:42:10.421Z,89.79
2023-05-19T00:51:32.598Z,86.76
2023-05-19T00:55:06.104Z,88.13
2023-05-19T01:01:40.010Z,87.56
2023-05-19T01:04:48.451Z,92.58
2023-05-19T01:08:09.928Z,96.76
2023-05-19T01:10:58.192Z,95.28
2023-05-19T01:13:49.710Z,95.69
2023-05-19T01:23:19.022Z,94.54
2023-05-19T01:26:43.804Z,93.62
2023-05-19T01:29:49.545Z,92.04
2023-05-19T01:36:27.912Z,91.63
2023-05-19T01:40:22.263Z,92.21
2023-05-19T01:46:39.807Z,93.62
2023-05-19T01:49:53.072Z,95.25
2023-05-19T01:59:49.826Z,94.08
2023-05-19T02:03:00.506Z,94.29
2023-05-19T02:06:34.305Z,90.56
2023-05-19T02:13:17.887Z,94.36
2023-05-19T02:16:28.834Z,96.08
2023-05-19T02:22:54.157Z,98.01
2023-05-19T02:29:08.920Z,97.89
2023-05-19T02:32:27.309Z,100.00
2023-05-19T02:35:46.612Z,100.00
2023-05-19T02:42:40.940Z,100.00
2023-05-19T02:45:30.012Z,100.00
2023-05-19T02:48:48.611Z,100.00
2023-05-19T02:51:55.910Z,100.00
2023-05-19T02:55:24.390Z,100.00
2023-05-19T03:02:03.771Z,100.00
2023-05-19T03:05:13.359Z,100.00
2023-05-19T03:11:36.479Z,100.00
2023-05-19T03:14:48.668Z,98.56
2023-05-19T03:17:42.236Z,99.46
2023-05-19T03:20:58.138Z,97.13
2023-05-19T03:26:46.602Z,95.88
2023-05-19T03:30:26.175Z,97.97
2023-05-19T03:33:44.927Z,96.90
2023-05-19T03:40:16.172Z,94.36
2023-05-19T03:43:18.853Z,94.41
2023-05-19T03:50:07.155Z,100.00
2023-05-19T03:56:41.976Z,98.92
2023-05-19T04:06:25.489Z,100.00
2023-05-19T04:09:41.293Z,96.94
2023-05-19T04:12:46.190Z,98.09
2023-05-19T04:16:08.136Z,100.00
2023-05-19T04:19:24.146Z,100.00
2023-05-19T04:22:32.605Z,100.00
2023-05-19T04:29:21.464Z,100.00
2023-05-19T04:32:31.709Z,100.00
2023-05-19T04:46:15.213Z,99.24
2023-05-19T04:56:29.605Z,92.87
2023-05-19T05:12:39.024Z,87.27
2023-05-19T05:19:18.638Z,91.95
2023-05-19T05:22:27.800Z,88.46
2023-05-19T05:25:34.365Z,87.39
2023-05-19T05:29:11.912Z,88.69
2023-05-19T05:32:17.847Z,88.33
2023-05-19T05:37:55.877Z,85.34
2023-05-19T05:40:24.382Z,85.50
2023-05-19T05:43:07.995Z,85.55
2023-05-19T05:45:40.252Z,82.29
2023-05-19T05:48:08.593Z,84.20
2023-05-19T05:51:27.617Z,82.16
2023-05-19T05:54:10.114Z,84.16
2023-05-19T05:56:58.716Z,80.54
2023-05-19T05:59:30.559Z,80.95
2023-05-19T06:05:37.710Z,75.56
2023-05-19T06:08:45.869Z,75.62
2023-05-19T06:11:29.329Z,74.59
2023-05-19T06:14:42.618Z,75.44
2023-05-19T06:18:31.152Z,73.66
2023-05-19T06:21:32.185Z,73.88
2023-05-19T06:24:07.769Z,73.05
2023-05-19T06:27:26.386Z,71.72
2023-05-19T06:34:18.048Z,73.49
2023-05-19T06:42:50.594Z,70.34
2023-05-19T06:45:26.806Z,72.85
2023-05-19T06:48:02.090Z,70.13
2023-05-19T06:50:46.427Z,68.85
2023-05-19T06:53:36.917Z,69.82
2023-05-19T06:56:08.314Z,63.59
2023-05-19T06:58:39.985Z,67.63
2023-05-19T07:01:10.028Z,61.69
2023-05-19T07:03:43.570Z,63.71
2023-05-19T07:06:13.892Z,70.09
2023-05-19T07:08:43.954Z,74.38
2023-05-19T07:11:16.516Z,73.73
2023-05-19T07:13:44.501Z,69.66
2023-05-19T07:16:13.206Z,71.24
2023-05-19T07:18:41.317Z,63.58
2023-05-19T07:21:14.560Z,60.70
2023-05-19T07:23:46.154Z,68.47
2023-05-19T07:26:15.546Z,71.79
2023-05-19T07:28:51.127Z,72.59
2023-05-19T07:31:19.076Z,69.89
2023-05-19T07:33:54.626Z,69.20
2023-05-19T07:36:25.730Z,68.13
2023-05-19T07:38:54.317Z,72.04
2023-05-19T07:41:26.016Z,70.32
2023-05-19T07:43:54.992Z,72.46
2023-05-19T07:46:23.066Z,66.99
2023-05-19T07:48:51.983Z,65.25
2023-05-19T07:51:21.434Z,66.13
2023-05-19T07:53:50.370Z,65.82
2023-05-19T07:56:18.549Z,67.50
2023-05-19T08:02:07.859Z,65.88
2023-05-19T08:05:07.438Z,62.04
2023-05-19T08:07:38.288Z,60.64
2023-05-19T08:10:08.724Z,61.44
2023-05-19T08:12:37.233Z,59.39
2023-05-19T08:15:06.735Z,62.39
2023-05-19T08:17:36.064Z,58.27
2023-05-19T08:20:09.891Z,57.04
2023-05-19T08:22:50.444Z,57.57
2023-05-19T08:25:22.658Z,64.85
2023-05-19T08:27:53.485Z,65.29
2023-05-19T08:30:34.163Z,64.73
2023-05-19T08:33:23.363Z,67.23
2023-05-19T08:35:59.116Z,65.53
2023-05-19T08:38:27.137Z,65.27
2023-05-19T08:41:04.450Z,65.28
2023-05-19T08:43:44.828Z,55.63
2023-05-19T08:47:04.194Z,64.88
2023-05-19T08:49:38.908Z,60.27
2023-05-19T08:52:13.652Z,59.36
2023-05-19T08:57:37.033Z,57.20
2023-05-19T09:00:15.871Z,55.08
2023-05-19T09:02:55.081Z,54.04
2023-05-19T09:05:42.899Z,56.66
2023-05-19T09:08:25.911Z,57.29
2023-05-19T09:10:59.542Z,59.02
2023-05-19T09:23:16.540Z,50.87
2023-05-19T09:30:15.137Z,52.31
2023-05-19T09:32:58.665Z,52.58
2023-05-19T09:35:33.558Z,49.89
2023-05-19T09:38:24.103Z,51.99
2023-05-19T09:44:53.974Z,55.21
2023-05-19T09:47:26.105Z,47.37
2023-05-19T09:50:05.842Z,51.10
2023-05-19T09:53:09.961Z,54.35
2023-05-19T09:55:46.552Z,55.77
2023-05-19T09:58:19.124Z,55.49
2023-05-19T10:00:49.748Z,52.97
2023-05-19T10:03:28.971Z,48.37
2023-05-19T10:05:58.585Z,52.73
2023-05-19T10:08:27.849Z,50.85
2023-05-19T10:10:55.708Z,54.74
2023-05-19T10:13:31.556Z,58.69
2023-05-19T10:16:00.830Z,53.55
2023-05-19T10:18:40.551Z,49.65
2023-05-19T10:21:11.809Z,51.81
2023-05-19T10:23:46.398Z,49.53
2023-05-19T10:26:17.541Z,52.73
2023-05-19T10:28:46.880Z,47.90
2023-05-19T10:31:28.530Z,48.69
2023-05-19T10:34:15.379Z,50.54
2023-05-19T10:36:50.287Z,49.95
2023-05-19T10:39:19.859Z,49.62
2023-05-19T10:41:52.289Z,51.88
2023-05-19T10:44:29.368Z,57.55
2023-05-19T10:47:08.815Z,54.24
2023-05-19T10:49:37.025Z,51.87
2023-05-19T10:52:07.687Z,50.81
2023-05-19T10:54:43.741Z,48.90
2023-05-19T10:57:18.413Z,49.70
2023-05-19T10:59:46.317Z,50.71
2023-05-19T11:02:56.527Z,55.83
2023-05-19T11:05:35.524Z,52.85
2023-05-19T11:08:06.491Z,54.39
2023-05-19T11:10:35.761Z,56.00
2023-05-19T11:13:06.439Z,54.75
2023-05-19T11:15:36.067Z,61.72
2023-05-19T11:18:06.103Z,54.82
2023-05-19T11:20:36.198Z,55.79
2023-05-19T11:23:04.208Z,57.90
2023-05-19T11:25:57.959Z,56.30
2023-05-19T11:28:28.171Z,59.55
2023-05-19T11:31:01.553Z,55.05
2023-05-19T11:33:29.453Z,55.85
2023-05-19T11:36:00.817Z,53.75
2023-05-19T11:38:30.388Z,55.76
2023-05-19T11:41:01.408Z,51.60
2023-05-19T11:43:29.568Z,51.88
2023-05-19T11:45:58.584Z,54.37
2023-05-19T11:48:29.535Z,54.01
2023-05-19T11:51:00.602Z,51.05
2023-05-19T11:53:49.064Z,54.09
2023-05-19T11:56:17.594Z,51.09
2023-05-19T11:58:45.858Z,53.69
2023-05-19T12:01:17.679Z,52.08
2023-05-19T12:03:50.202Z,49.22
2023-05-19T12:06:29.092Z,54.49
2023-05-19T12:09:06.551Z,55.69
2023-05-19T12:11:38.631Z,48.45
2023-05-19T12:14:10.200Z,50.75
2023-05-19T12:16:42.735Z,49.10
2023-05-19T12:19:35.496Z,52.31
2023-05-19T12:22:06.916Z,51.30
2023-05-19T12:24:56.984Z,42.62
2023-05-19T12:27:52.738Z,45.37
2023-05-19T12:30:37.441Z,49.49
2023-05-19T12:33:23.435Z,45.79
2023-05-19T12:36:14.534Z,46.74
2023-05-19T12:38:53.186Z,49.49
2023-05-19T12:41:30.160Z,43.94
2023-05-19T12:44:20.209Z,44.32
2023-05-19T12:46:53.411Z,47.44
2023-05-19T12:49:21.794Z,47.71
2023-05-19T12:52:33.030Z,44.49
2023-05-19T12:55:21.587Z,42.18
2023-05-19T12:58:00.188Z,40.01
2023-05-19T13:00:32.970Z,39.97
2023-05-19T13:03:07.081Z,43.00
2023-05-19T13:05:38.474Z,44.64
2023-05-19T13:08:14.823Z,42.35
2023-05-19T13:10:47.377Z,40.01
2023-05-19T13:13:30.920Z,38.82
2023-05-19T13:16:07.911Z,40.99
2023-05-19T13:19:01.482Z,39.98
2023-05-19T13:21:32.700Z,40.80
2023-05-19T13:24:04.650Z,40.76
2023-05-19T13:26:37.214Z,41.37
2023-05-19T13:29:06.080Z,42.02
2023-05-19T13:31:34.181Z,42.17
2023-05-19T13:34:03.957Z,41.76
2023-05-19T13:36:49.028Z,44.52
2023-05-19T13:39:25.426Z,39.76
2023-05-19T13:41:59.755Z,39.88
2023-05-19T13:44:47.009Z,40.65
2023-05-19T13:48:00.731Z,41.23
2023-05-19T13:50:55.303Z,43.57
2023-05-19T13:53:42.465Z,42.39
2023-05-19T13:56:21.286Z,42.08
2023-05-19T13:58:52.074Z,48.98
2023-05-19T14:01:21.224Z,47.05
2023-05-19T14:03:49.794Z,42.87
2023-05-19T14:06:19.081Z,44.39
2023-05-19T14:08:48.293Z,42.05
2023-05-19T14:11:22.840Z,46.19
2023-05-19T14:13:52.670Z,46.59
2023-05-19T14:16:23.251Z,49.46
2023-05-19T14:18:52.667Z,45.25
2023-05-19T14:21:20.566Z,46.67
2023-05-19T14:23:48.886Z,46.31
2023-05-19T14:26:16.819Z,49.20
2023-05-19T14:28:46.040Z,50.90
2023-05-19T14:31:14.488Z,46.30
2023-05-19T14:33:42.547Z,45.71
2023-05-19T14:36:10.742Z,47.85
2023-05-19T14:38:39.166Z,50.23
2023-05-19T14:41:08.252Z,51.74
2023-05-19T14:43:36.380Z,51.06
2023-05-19T14:46:06.333Z,46.49
2023-05-19T14:48:34.212Z,46.50
2023-05-19T14:51:02.206Z,45.74
2023-05-19T14:53:30.752Z,46.58
2023-05-19T14:55:58.900Z,49.81
2023-05-19T14:58:29.205Z,53.50
2023-05-19T15:00:59.422Z,49.22
2023-05-19T15:03:27.596Z,48.96
2023-05-19T15:05:55.592Z,51.69
2023-05-19T15:08:24.114Z,53.29
2023-05-19T15:10:52.247Z,52.10
2023-05-19T15:13:21.827Z,50.52
2023-05-19T15:15:58.909Z,50.24
2023-05-19T15:18:33.712Z,52.93
2023-05-19T15:21:02.060Z,49.14
2023-05-19T15:23:30.623Z,49.42
2023-05-19T15:25:58.521Z,51.47
2023-05-19T15:28:27.392Z,51.30
2023-05-19T15:30:55.310Z,54.10
2023-05-19T15:33:23.548Z,57.94
2023-05-19T15:35:52.571Z,55.66
2023-05-19T15:38:20.619Z,57.30
2023-05-19T15:40:48.646Z,58.00
2023-05-19T15:43:17.754Z,55.05
2023-05-19T15:45:45.754Z,52.09
2023-05-19T15:48:13.693Z,53.62
2023-05-19T15:50:43.271Z,57.30
2023-05-19T15:53:12.188Z,54.65
2023-05-19T15:55:40.161Z,57.28
2023-05-19T15:58:09.130Z,58.92
2023-05-19T16:00:37.426Z,58.65
2023-05-19T16:03:06.020Z,63.83
2023-05-19T16:05:33.984Z,63.92
2023-05-19T16:08:02.077Z,66.33
2023-05-19T16:10:30.466Z,63.10
2023-05-19T16:12:58.496Z,64.45
2023-05-19T16:15:26.562Z,66.49
2023-05-19T16:17:57.148Z,66.59
2023-05-19T16:20:28.280Z,66.82
2023-05-19T16:22:56.768Z,71.48
2023-05-19T16:25:26.088Z,72.28
2023-05-19T16:27:54.209Z,74.95
2023-05-19T16:30:23.399Z,72.15
2023-05-19T16:32:53.378Z,71.88
2023-05-19T16:35:22.061Z,74.38
2023-05-19T16:37:50.509Z,71.13
2023-05-19T16:40:21.187Z,67.80
2023-05-19T16:42:49.180Z,65.26
2023-05-19T16:45:20.523Z,62.19
2023-05-19T16:47:48.516Z,62.84
2023-05-19T16:50:18.128Z,63.79
2023-05-19T16:52:46.207Z,64.53
2023-05-19T16:55:19.874Z,64.46
2023-05-19T16:57:48.912Z,66.08
2023-05-19T17:00:17.153Z,67.96
2023-05-19T17:02:45.340Z,71.81
2023-05-19T17:05:13.953Z,71.89
2023-05-19T17:07:42.305Z,72.80
2023-05-19T17:10:10.703Z,70.53
2023-05-19T17:12:39.683Z,71.30
2023-05-19T17:15:08.095Z,71.10
2023-05-19T17:17:39.245Z,70.06
2023-05-19T17:20:10.779Z,71.00
2023-05-19T17:22:38.863Z,68.69
2023-05-19T17:25:07.691Z,71.41
2023-05-19T17:27:35.936Z,72.59
2023-05-19T17:30:04.146Z,75.52
2023-05-19T17:32:36.195Z,73.07
2023-05-19T17:35:06.733Z,73.21
2023-05-19T17:37:35.239Z,72.82
2023-05-19T17:40:03.230Z,76.35
2023-05-19T17:42:32.065Z,72.80
2023-05-19T17:45:00.642Z,74.05
2023-05-19T17:47:28.575Z,75.06
2023-05-19T17:49:56.763Z,74.97
2023-05-19T17:52:26.117Z,78.14
2023-05-19T17:54:54.195Z,80.43
2023-05-19T17:57:22.264Z,81.77
2023-05-19T17:59:50.854Z,81.86
2023-05-19T18:02:19.661Z,81.95
2023-05-19T18:04:48.104Z,83.96
2023-05-19T18:07:16.976Z,80.89
2023-05-19T18:09:46.742Z,75.74
2023-05-19T18:12:18.918Z,80.00
2023-05-19T18:14:46.802Z,87.15
2023-05-19T18:17:14.662Z,88.62
2023-05-19T18:19:44.540Z,87.64
2023-05-19T18:22:15.030Z,86.38
2023-05-19T18:24:43.880Z,87.91
2023-05-19T18:27:11.762Z,92.32
2023-05-19T18:29:39.684Z,93.28
2023-05-19T18:32:08.085Z,93.02
2023-05-19T18:34:36.212Z,89.49
2023-05-19T18:37:04.193Z,84.20
2023-05-19T18:39:32.581Z,81.94
2023-05-19T18:42:05.121Z,84.65
2023-05-19T18:44:51.711Z,87.20
2023-05-19T18:47:42.267Z,85.25
2023-05-19T18:50:52.968Z,85.96
2023-05-19T18:59:18.690Z,90.43
2023-05-19T19:02:44.588Z,93.20
2023-05-19T19:05:46.105Z,95.20
2023-05-19T19:09:14.377Z,96.91
2023-05-19T19:12:15.052Z,94.04
2023-05-19T19:15:34.360Z,96.57
2023-05-19T19:18:10.587Z,94.96
2023-05-19T19:21:23.071Z,92.48
2023-05-19T19:24:16.426Z,89.07
2023-05-19T19:27:13.852Z,90.11
2023-05-19T19:30:14.416Z,86.13
2023-05-19T19:33:31.073Z,90.25
2023-05-19T19:36:19.132Z,94.32
2023-05-19T19:43:47.890Z,98.74
2023-05-19T19:47:09.120Z,94.50
2023-05-19T19:49:52.859Z,87.90
2023-05-19T19:52:56.735Z,100.00
2023-05-19T19:55:44.782Z,100.00
2023-05-19T19:58:59.053Z,99.14
2023-05-19T20:04:30.872Z,100.00
2023-05-19T20:07:13.598Z,100.00
2023-05-19T20:10:20.031Z,100.00
2023-05-19T20:13:17.835Z,100.00
2023-05-19T20:16:06.310Z,99.10
2023-05-19T20:18:43.321Z,96.18
2023-05-19T20:22:01.735Z,100.00
2023-05-19T20:24:50.688Z,100.00
2023-05-19T20:27:39.828Z,100.00
2023-05-19T20:30:53.379Z,100.00
2023-05-19T20:34:03.940Z,100.00
2023-05-19T20:36:54.861Z,100.00
2023-05-19T20:39:40.550Z,100.00
2023-05-19T20:42:49.394Z,100.00
2023-05-19T20:45:29.382Z,100.00
2023-05-19T20:48:29.371Z,100.00
2023-05-19T20:51:58.034Z,100.00
2023-05-19T20:55:00.002Z,100.00
2023-05-19T21:01:04.912Z,100.00
2023-05-19T21:04:40.053Z,100.00
2023-05-19T21:09:01.510Z,100.00
2023-05-19T21:19:46.996Z,100.00
2023-05-19T21:22:47.589Z,100.00
2023-05-19T21:25:17.872Z,100.00
2023-05-19T21:27:54.197Z,100.00
2023-05-19T21:31:27.441Z,100.00
2023-05-19T21:35:28.433Z,96.71
2023-05-19T21:38:32.515Z,100.00
2023-05-19T21:41:53.885Z,100.00
2023-05-19T21:44:25.714Z,100.00
2023-05-19T21:47:41.489Z,100.00
2023-05-19T21:50:42.094Z,100.00
2023-05-19T21:53:18.230Z,100.00
2023-05-19T21:55:48.728Z,99.95
2023-05-19T21:58:22.596Z,96.94
2023-05-19T22:01:08.834Z,95.05
2023-05-19T22:04:00.452Z,100.00
2023-05-19T22:07:00.700Z,100.00
2023-05-19T22:10:19.482Z,100.00
2023-05-19T22:13:11.993Z,97.85
2023-05-19T22:16:07.388Z,100.00
2023-05-19T22:19:04.765Z,100.00
2023-05-19T22:22:14.555Z,100.00
2023-05-19T22:24:57.840Z,100.00
2023-05-19T22:28:09.787Z,100.00
2023-05-19T22:31:19.939Z,100.00
2023-05-19T22:34:30.950Z,100.00
2023-05-19T22:37:18.908Z,100.00
2023-05-19T22:43:26.724Z,98.01
2023-05-19T22:46:15.044Z,92.72
2023-05-19T22:48:57.233Z,100.00
2023-05-19T22:52:07.737Z,100.00
2023-05-19T22:54:51.450Z,100.00
2023-05-19T22:57:19.987Z,100.00
2023-05-19T23:00:08.857Z,100.00
2023-05-19T23:03:20.327Z,97.53
2023-05-19T23:06:00.787Z,100.00
2023-05-19T23:09:23.392Z,100.00
2023-05-19T23:12:10.424Z,98.33
2023-05-19T23:15:17.275Z,99.74
2023-05-19T23:21:09.828Z,100.00
2023-05-19T23:24:08.333Z,100.00
2023-05-19T23:29:58.746Z,100.00
2023-05-19T23:32:50.868Z,100.00
2023-05-19T23:35:40.070Z,100.00
2023-05-19T23:39:18.617Z,100.00
2023-05-19T23:42:06.659Z,100.00
2023-05-19T23:45:16.322Z,100.00
2023-05-19T23:48:19.960Z,100.00
2023-05-19T23:51:16.515Z,100.00
2023-05-19T23:54:04.703Z,95.47
2023-05-19T23:57:20.917Z,100.00
